首页
METAR-TAF:

METAR-TAF

机场 :

Chièvres, 比利时

纬度: 50-34N, 经度: 003-50E, 海拔: 60米

当前天气观测

该预报发布于52分钟前的15:55 UTC
风速7节,风向西南
温度 10°C
湿度 87%
气压 997 hPa
能见度10公里或以上
小雨

METAR: EBCV 051555Z AUTO 23007KT 9999 -RA BKN054/// OVC085/// 10/08 Q0997 BLU

时间: 18:47 (16:47 UTC)

预报

该预报发布于5小时和6分钟前的11:41 UTC
预报有效从05日的 13点(UTC)到 05日的 22点(UTC)
风速12节,风向西南,有时为22节阵风
能见度10公里或以上
少量云层高于1500英尺
散云层高于3000英尺
多云层高于5000英尺
短暂存在
从 05日的 13点(UTC)到 05日的 22点(UTC)
风速15节,风向西南,有时为25节阵风
能見度: 6000
散云层高于1500英尺
多云层高于2000英尺
小阵雨
几率 40% :
短暂存在
从 05日的 13点(UTC)到 05日的 18点(UTC)
风速20节,风向西南,有时为30节阵风
能見度: 4000
散云层高于1200英尺, 塔状积云.
多云层高于2000英尺
阵雨

TAF: EBCV 051141Z 0513/0522 23012G22KT 9999 FEW015 SCT030 BKN050 TEMPO 0513/0522 23015G25KT 6000 -SHRA SCT015 BKN020 PROB40 TEMPO 0513/0518 23020G30KT 4000 SHRA SCT012TCU BKN020 BY EBWM

超过4000个机场的气象观测和天气预报(METAR&TAF报告)。

可查询的气象台以黄色和红色小点在地图上表示。

将鼠标移到小点上方,可查看气象台名称。

然后点击查看天气观测和预报。

如需切换地图:点击带黑十字的绿色按钮放大地图;点击带横线的绿色按钮缩小地图;或者点击绿色箭头查看邻近地区的地图。


METAR-TAF: